MDT,Max TemperatureF,Mean TemperatureF,Min TemperatureF,Max Dew PointF,MeanDew PointF,Min DewpointF,Max Humidity, Mean Humidity, Min Humidity, Max Sea Level PressureIn, Mean Sea Level PressureIn, Min Sea Level PressureIn, Max VisibilityMiles, Mean VisibilityMiles, Min VisibilityMiles, Max Wind SpeedMPH, Mean Wind SpeedMPH, Max Gust SpeedMPH,PrecipitationIn, CloudCover, Events, WindDirDegrees
2013-6-1,96,78,59,32,22,14,31,15,6,30.04,29.97,29.91,10,10,10,14,7,24,0.00,0,,156
2013-6-2,98,84,69,46,34,14,36,19,7,30.03,29.94,29.82,10,10,10,24,13,34,0.00,0,,133
2013-6-3,96,80,64,50,31,12,52,23,5,30.03,29.96,29.89,10,10,7,18,9,44,0.00,0,,237
2013-6-4,95,74,53,36,25,14,21,13,9,30.06,29.99,29.92,10,10,10,16,7,26,0.00,0,,281
2013-6-5,95,77,59,30,21,5,27,14,5,30.06,29.99,29.91,10,10,10,18,6,24,0.00,0,,292
2013-6-6,96,78,59,32,16,9,18,10,4,30.01,29.95,29.88,10,10,10,15,6,20,0.00,0,,238
2013-6-7,96,82,68,52,41,30,43,26,11,30.02,29.95,29.86,10,10,4,22,11,53,0.00,0,Rain-Thunderstorm,134
2013-6-8,100,81,62,41,31,21,45,20,6,29.97,29.92,29.84,10,9,4,24,10,34,0.00,0,,253
2013-6-9,100,86,71,30,26,21,18,11,7,30.04,29.98,29.91,10,10,10,21,14,29,0.00,0,,292
2013-6-10,100,80,60,25,21,18,20,11,6,30.08,30.01,29.94,10,10,10,16,6,23,0.00,0,,300
2013-6-11,102,86,71,27,23,19,14,8,6,30.07,30.00,29.93,10,10,10,16,9,29,0.00,0,,313
2013-6-12,104,83,62,28,25,21,22,12,6,30.10,30.02,29.93,10,10,10,16,9,25,0.00,0,,308
2013-6-13,100,83,66,37,31,25,23,14,9,30.08,30.00,29.90,10,10,10,20,6,24,0.00,0,,269
2013-6-14,98,82,66,46,39,30,46,22,10,30.04,29.98,29.88,10,10,10,21,7,26,0.00,0,,267
2013-6-15,98,84,69,50,43,37,46,27,12,30.10,30.04,29.98,10,10,7,25,7,29,0.00,1,Rain-Thunderstorm,249
2013-6-16,96,80,64,50,45,41,52,30,16,30.14,30.07,29.99,10,10,10,17,5,23,0.00,1,,267
2013-6-17,98,82,66,45,31,23,32,16,8,30.10,30.03,29.96,10,10,10,18,7,28,0.00,0,,292
2013-6-18,100,80,59,36,20,0,23,12,4,30.08,29.99,29.90,10,10,10,21,7,28,0.00,0,,227
2013-6-19,100,80,59,32,15,-2,10,8,5,30.00,29.93,29.84,10,10,10,24,6,33,0.00,0,,267
2013-6-20,100,80,60,27,16,5,16,9,5,30.03,29.96,29.89,10,10,10,25,8,31,0.00,0,,225
2013-6-21,100,80,60,36,18,7,15,10,5,30.07,30.00,29.93,10,10,10,22,6,30,0.00,0,,239
2013-6-22,96,78,59,32,21,12,19,11,6,30.07,29.99,29.91,10,10,10,24,7,34,0.00,0,,273
2013-6-23,96,78,60,30,23,12,16,12,9,30.04,29.96,29.86,10,10,10,18,5,26,0.00,0,,256
2013-6-24,96,80,64,34,31,21,28,16,10,30.05,29.98,29.92,10,10,10,24,5,36,0.00,0,,277
2013-6-25,96,78,60,34,20,9,23,12,5,30.11,30.06,30.00,10,10,10,21,8,30,0.00,0,,293
2013-6-26,98,78,59,28,17,9,15,9,5,30.18,30.11,30.05,10,10,10,20,10,26,0.00,0,,302
2013-6-27,100,81,62,32,24,10,21,12,7,30.19,30.11,30.04,10,10,10,21,9,26,0.00,0,,300
2013-6-28,100,83,66,36,31,27,23,15,9,30.18,30.11,30.06,10,10,10,28,8,34,0.00,0,,135
2013-6-29,102,88,73,43,35,30,29,17,8,30.16,30.08,29.98,10,10,10,26,7,33,0.00,0,,142
2013-6-30,100,88,75,48,42,34,30,21,12,30.08,30.02,29.93,10,10,10,28,7,38,0.00,0,,119